sensor_id;sensor_type;location;lat;lon;timestamp;temperature;humidity
34837;DHT22;21053;50.848;4.652;2022-11-15T00:00:19;11.90;99.90
34837;DHT22;21053;50.848;4.652;2022-11-15T00:02:45;11.90;99.90
34837;DHT22;21053;50.848;4.652;2022-11-15T00:05:11;12.00;99.90
34837;DHT22;21053;50.848;4.652;2022-11-15T00:07:37;12.00;99.90
34837;DHT22;21053;50.848;4.652;2022-11-15T00:10:03;12.10;99.90
34837;DHT22;21053;50.848;4.652;2022-11-15T00:12:30;12.10;99.90
34837;DHT22;21053;50.848;4.652;2022-11-15T00:14:56;12.10;99.90
34837;DHT22;21053;50.848;4.652;2022-11-15T00:17:21;12.10;99.90
34837;DHT22;21053;50.848;4.652;2022-11-15T00:19:50;12.20;99.90
34837;DHT22;21053;50.848;4.652;2022-11-15T00:22:16;12.20;99.90
34837;DHT22;21053;50.848;4.652;2022-11-15T00:24:42;12.30;99.90
34837;DHT22;21053;50.848;4.652;2022-11-15T00:27:09;12.40;99.90
34837;DHT22;21053;50.848;4.652;2022-11-15T00:29:34;12.30;99.90
34837;DHT22;21053;50.848;4.652;2022-11-15T00:32:02;12.30;99.90
34837;DHT22;21053;50.848;4.652;2022-11-15T00:34:29;12.20;99.90
34837;DHT22;21053;50.848;4.652;2022-11-15T00:36:55;12.20;99.90
34837;DHT22;21053;50.848;4.652;2022-11-15T00:39:21;12.20;99.90
34837;DHT22;21053;50.848;4.652;2022-11-15T00:41:48;12.20;99.90
34837;DHT22;21053;50.848;4.652;2022-11-15T00:44:14;12.30;99.90
34837;DHT22;21053;50.848;4.652;2022-11-15T00:46:39;12.30;99.90
34837;DHT22;21053;50.848;4.652;2022-11-15T00:49:05;12.30;99.90
34837;DHT22;21053;50.848;4.652;2022-11-15T00:51:31;12.30;99.90
34837;DHT22;21053;50.848;4.652;2022-11-15T00:53:56;12.30;99.90
34837;DHT22;21053;50.848;4.652;2022-11-15T00:56:22;12.30;99.90
34837;DHT22;21053;50.848;4.652;2022-11-15T00:58:48;12.30;99.90
34837;DHT22;21053;50.848;4.652;2022-11-15T01:01:14;12.40;99.90
34837;DHT22;21053;50.848;4.652;2022-11-15T01:03:41;12.40;99.90
34837;DHT22;21053;50.848;4.652;2022-11-15T01:06:07;12.40;99.90
34837;DHT22;21053;50.848;4.652;2022-11-15T01:08:34;12.30;99.90
34837;DHT22;21053;50.848;4.652;2022-11-15T01:11:05;12.40;99.90
34837;DHT22;21053;50.848;4.652;2022-11-15T01:13:33;12.30;99.90
34837;DHT22;21053;50.848;4.652;2022-11-15T01:16:12;12.40;99.90
34837;DHT22;21053;50.848;4.652;2022-11-15T01:18:40;12.40;99.90
34837;DHT22;21053;50.848;4.652;2022-11-15T01:21:15;12.40;99.90
34837;DHT22;21053;50.848;4.652;2022-11-15T01:23:41;12.40;99.90
34837;DHT22;21053;50.848;4.652;2022-11-15T01:26:10;12.50;99.90
34837;DHT22;21053;50.848;4.652;2022-11-15T01:28:37;12.60;99.90
34837;DHT22;21053;50.848;4.652;2022-11-15T01:31:06;12.80;99.90
34837;DHT22;21053;50.848;4.652;2022-11-15T01:33:34;12.60;99.90
34837;DHT22;21053;50.848;4.652;2022-11-15T01:36:06;12.70;99.90
34837;DHT22;21053;50.848;4.652;2022-11-15T01:38:32;12.90;99.90
34837;DHT22;21053;50.848;4.652;2022-11-15T01:40:58;12.90;99.90
34837;DHT22;21053;50.848;4.652;2022-11-15T01:43:27;12.80;99.90
34837;DHT22;21053;50.848;4.652;2022-11-15T01:46:08;12.80;99.90
34837;DHT22;21053;50.848;4.652;2022-11-15T01:48:41;12.80;99.90
34837;DHT22;21053;50.848;4.652;2022-11-15T01:51:10;12.80;99.90
34837;DHT22;21053;50.848;4.652;2022-11-15T01:53:39;12.70;99.90
34837;DHT22;21053;50.848;4.652;2022-11-15T01:56:09;12.70;99.90
34837;DHT22;21053;50.848;4.652;2022-11-15T01:58:37;12.80;99.90
34837;DHT22;21053;50.848;4.652;2022-11-15T02:01:03;12.80;99.90
34837;DHT22;21053;50.848;4.652;2022-11-15T02:03:50;12.80;99.90
34837;DHT22;21053;50.848;4.652;2022-11-15T02:06:18;12.80;99.90
34837;DHT22;21053;50.848;4.652;2022-11-15T02:08:44;12.80;99.90
34837;DHT22;21053;50.848;4.652;2022-11-15T02:11:11;12.80;99.90
34837;DHT22;21053;50.848;4.652;2022-11-15T02:13:37;12.90;99.90
34837;DHT22;21053;50.848;4.652;2022-11-15T02:18:53;12.90;99.90
34837;DHT22;21053;50.848;4.652;2022-11-15T02:21:41;13.10;99.90
34837;DHT22;21053;50.848;4.652;2022-11-15T02:32:56;13.00;99.90
34837;DHT22;21053;50.848;4.652;2022-11-15T02:35:34;13.00;99.90
34837;DHT22;21053;50.848;4.652;2022-11-15T02:38:18;13.10;99.90
34837;DHT22;21053;50.848;4.652;2022-11-15T02:41:20;13.10;99.90
34837;DHT22;21053;50.848;4.652;2022-11-15T02:43:59;13.20;99.90
34837;DHT22;21053;50.848;4.652;2022-11-15T02:46:36;13.10;99.90
34837;DHT22;21053;50.848;4.652;2022-11-15T02:49:26;13.00;99.90
34837;DHT22;21053;50.848;4.652;2022-11-15T02:51:55;13.00;99.90
34837;DHT22;21053;50.848;4.652;2022-11-15T02:54:29;12.90;99.90
34837;DHT22;21053;50.848;4.652;2022-11-15T02:57:02;13.00;99.90
34837;DHT22;21053;50.848;4.652;2022-11-15T03:02:42;12.90;99.90
34837;DHT22;21053;50.848;4.652;2022-11-15T03:05:22;12.90;99.90
34837;DHT22;21053;50.848;4.652;2022-11-15T03:08:15;12.90;99.90
34837;DHT22;21053;50.848;4.652;2022-11-15T03:16:34;12.80;99.90
34837;DHT22;21053;50.848;4.652;2022-11-15T03:19:34;12.80;99.90
34837;DHT22;21053;50.848;4.652;2022-11-15T03:22:04;12.70;99.90
34837;DHT22;21053;50.848;4.652;2022-11-15T03:24:34;12.70;99.90
34837;DHT22;21053;50.848;4.652;2022-11-15T03:27:02;12.80;99.90
34837;DHT22;21053;50.848;4.652;2022-11-15T03:29:38;12.90;99.90
34837;DHT22;21053;50.848;4.652;2022-11-15T03:32:14;12.90;99.90
34837;DHT22;21053;50.848;4.652;2022-11-15T03:34:49;12.90;99.90
34837;DHT22;21053;50.848;4.652;2022-11-15T03:37:17;12.90;99.90
34837;DHT22;21053;50.848;4.652;2022-11-15T03:39:43;12.80;99.90
34837;DHT22;21053;50.848;4.652;2022-11-15T03:47:28;12.80;99.90
34837;DHT22;21053;50.848;4.652;2022-11-15T03:50:08;12.80;99.90
34837;DHT22;21053;50.848;4.652;2022-11-15T03:52:35;12.80;99.90
34837;DHT22;21053;50.848;4.652;2022-11-15T03:55:04;12.80;99.90
34837;DHT22;21053;50.848;4.652;2022-11-15T03:57:34;12.90;99.90
34837;DHT22;21053;50.848;4.652;2022-11-15T04:00:00;12.80;99.90
34837;DHT22;21053;50.848;4.652;2022-11-15T04:02:26;12.80;99.90
34837;DHT22;21053;50.848;4.652;2022-11-15T04:04:51;12.80;99.90
34837;DHT22;21053;50.848;4.652;2022-11-15T04:07:17;12.90;99.90
34837;DHT22;21053;50.848;4.652;2022-11-15T04:09:44;12.90;99.90
34837;DHT22;21053;50.848;4.652;2022-11-15T04:12:28;12.80;99.90
34837;DHT22;21053;50.848;4.652;2022-11-15T04:15:07;12.90;99.90
34837;DHT22;21053;50.848;4.652;2022-11-15T04:20:10;12.80;99.90
34837;DHT22;21053;50.848;4.652;2022-11-15T04:22:56;12.80;99.90
34837;DHT22;21053;50.848;4.652;2022-11-15T04:25:41;12.90;99.90
34837;DHT22;21053;50.848;4.652;2022-11-15T04:28:08;12.90;99.90
34837;DHT22;21053;50.848;4.652;2022-11-15T04:30:34;12.80;99.90
34837;DHT22;21053;50.848;4.652;2022-11-15T04:32:59;12.90;99.90
34837;DHT22;21053;50.848;4.652;2022-11-15T04:35:25;12.80;99.90
34837;DHT22;21053;50.848;4.652;2022-11-15T04:37:51;12.80;99.90
34837;DHT22;21053;50.848;4.652;2022-11-15T04:40:16;12.80;99.90
34837;DHT22;21053;50.848;4.652;2022-11-15T04:42:42;12.80;99.90
34837;DHT22;21053;50.848;4.652;2022-11-15T04:45:09;12.80;99.90
34837;DHT22;21053;50.848;4.652;2022-11-15T04:47:34;12.70;99.90
34837;DHT22;21053;50.848;4.652;2022-11-15T04:50:03;12.70;99.90
34837;DHT22;21053;50.848;4.652;2022-11-15T04:52:29;12.60;99.90
34837;DHT22;21053;50.848;4.652;2022-11-15T04:54:56;12.70;99.90
34837;DHT22;21053;50.848;4.652;2022-11-15T04:57:22;12.70;99.90
34837;DHT22;21053;50.848;4.652;2022-11-15T04:59:47;12.80;99.90
34837;DHT22;21053;50.848;4.652;2022-11-15T05:02:14;12.80;99.90
34837;DHT22;21053;50.848;4.652;2022-11-15T05:04:40;12.80;99.90
34837;DHT22;21053;50.848;4.652;2022-11-15T05:07:05;12.70;99.90
34837;DHT22;21053;50.848;4.652;2022-11-15T05:09:31;12.70;99.90
34837;DHT22;21053;50.848;4.652;2022-11-15T05:11:57;12.60;99.90
34837;DHT22;21053;50.848;4.652;2022-11-15T05:14:22;12.50;99.90
34837;DHT22;21053;50.848;4.652;2022-11-15T05:16:48;12.40;99.90
34837;DHT22;21053;50.848;4.652;2022-11-15T05:19:14;12.40;99.90
34837;DHT22;21053;50.848;4.652;2022-11-15T05:21:39;12.40;99.90
34837;DHT22;21053;50.848;4.652;2022-11-15T05:24:05;12.40;99.90
34837;DHT22;21053;50.848;4.652;2022-11-15T05:26:32;12.20;99.90
34837;DHT22;21053;50.848;4.652;2022-11-15T05:28:59;12.20;99.90
34837;DHT22;21053;50.848;4.652;2022-11-15T05:31:25;12.20;99.90
34837;DHT22;21053;50.848;4.652;2022-11-15T05:33:51;12.30;99.90
34837;DHT22;21053;50.848;4.652;2022-11-15T05:36:52;12.20;99.90
34837;DHT22;21053;50.848;4.652;2022-11-15T05:39:17;12.20;99.90
34837;DHT22;21053;50.848;4.652;2022-11-15T05:41:48;12.10;99.90
34837;DHT22;21053;50.848;4.652;2022-11-15T05:44:17;12.00;99.90
34837;DHT22;21053;50.848;4.652;2022-11-15T05:46:45;12.00;99.90
34837;DHT22;21053;50.848;4.652;2022-11-15T05:49:14;12.00;99.90
34837;DHT22;21053;50.848;4.652;2022-11-15T05:51:44;11.80;99.90
34837;DHT22;21053;50.848;4.652;2022-11-15T05:54:11;11.80;99.90
34837;DHT22;21053;50.848;4.652;2022-11-15T05:56:37;11.80;99.90
34837;DHT22;21053;50.848;4.652;2022-11-15T05:59:04;11.70;99.90
34837;DHT22;21053;50.848;4.652;2022-11-15T06:01:29;11.60;99.90
34837;DHT22;21053;50.848;4.652;2022-11-15T06:03:55;11.60;99.90
34837;DHT22;21053;50.848;4.652;2022-11-15T06:06:22;11.50;99.90
34837;DHT22;21053;50.848;4.652;2022-11-15T06:08:48;11.30;99.90
34837;DHT22;21053;50.848;4.652;2022-11-15T06:11:13;11.40;99.90
34837;DHT22;21053;50.848;4.652;2022-11-15T06:13:39;11.40;99.90
34837;DHT22;21053;50.848;4.652;2022-11-15T06:16:05;11.30;99.90
34837;DHT22;21053;50.848;4.652;2022-11-15T06:18:34;11.20;99.90
34837;DHT22;21053;50.848;4.652;2022-11-15T06:21:01;11.10;99.90
34837;DHT22;21053;50.848;4.652;2022-11-15T06:23:28;10.90;99.90
34837;DHT22;21053;50.848;4.652;2022-11-15T06:25:58;10.90;99.90
34837;DHT22;21053;50.848;4.652;2022-11-15T06:28:24;10.80;99.90
34837;DHT22;21053;50.848;4.652;2022-11-15T06:30:51;10.80;99.90
34837;DHT22;21053;50.848;4.652;2022-11-15T06:33:16;10.80;99.90
34837;DHT22;21053;50.848;4.652;2022-11-15T06:35:43;10.80;99.90
34837;DHT22;21053;50.848;4.652;2022-11-15T06:38:09;10.60;99.90
34837;DHT22;21053;50.848;4.652;2022-11-15T06:40:37;10.50;99.90
34837;DHT22;21053;50.848;4.652;2022-11-15T06:43:03;10.60;99.90
34837;DHT22;21053;50.848;4.652;2022-11-15T06:45:29;10.60;99.90
34837;DHT22;21053;50.848;4.652;2022-11-15T06:47:56;10.50;99.90
34837;DHT22;21053;50.848;4.652;2022-11-15T06:50:22;10.50;99.90
34837;DHT22;21053;50.848;4.652;2022-11-15T06:52:48;10.40;99.90
34837;DHT22;21053;50.848;4.652;2022-11-15T06:55:14;10.30;99.90
34837;DHT22;21053;50.848;4.652;2022-11-15T06:57:49;10.30;99.90
34837;DHT22;21053;50.848;4.652;2022-11-15T07:00:16;10.20;99.90
34837;DHT22;21053;50.848;4.652;2022-11-15T07:02:42;10.10;99.90
34837;DHT22;21053;50.848;4.652;2022-11-15T07:05:09;9.90;99.90
34837;DHT22;21053;50.848;4.652;2022-11-15T07:07:35;10.00;99.90
34837;DHT22;21053;50.848;4.652;2022-11-15T07:10:01;9.90;99.90
34837;DHT22;21053;50.848;4.652;2022-11-15T07:12:26;9.80;99.90
34837;DHT22;21053;50.848;4.652;2022-11-15T07:14:52;9.80;99.90
34837;DHT22;21053;50.848;4.652;2022-11-15T07:17:18;9.80;99.90
34837;DHT22;21053;50.848;4.652;2022-11-15T07:19:44;9.70;99.90
34837;DHT22;21053;50.848;4.652;2022-11-15T07:22:10;9.80;99.90
34837;DHT22;21053;50.848;4.652;2022-11-15T07:24:37;9.80;99.90
34837;DHT22;21053;50.848;4.652;2022-11-15T07:27:02;9.70;99.90
34837;DHT22;21053;50.848;4.652;2022-11-15T07:29:28;9.80;99.90
34837;DHT22;21053;50.848;4.652;2022-11-15T07:31:54;9.80;99.90
34837;DHT22;21053;50.848;4.652;2022-11-15T07:34:20;9.80;99.90
34837;DHT22;21053;50.848;4.652;2022-11-15T07:36:45;9.80;99.90
34837;DHT22;21053;50.848;4.652;2022-11-15T07:39:12;9.90;99.90
34837;DHT22;21053;50.848;4.652;2022-11-15T07:41:39;10.30;99.90
34837;DHT22;21053;50.848;4.652;2022-11-15T07:44:06;9.90;99.90
34837;DHT22;21053;50.848;4.652;2022-11-15T07:46:32;10.00;99.90
34837;DHT22;21053;50.848;4.652;2022-11-15T07:48:58;10.00;99.90
34837;DHT22;21053;50.848;4.652;2022-11-15T07:51:25;10.20;99.90
34837;DHT22;21053;50.848;4.652;2022-11-15T07:53:51;10.20;99.90
34837;DHT22;21053;50.848;4.652;2022-11-15T07:56:16;10.30;99.90
34837;DHT22;21053;50.848;4.652;2022-11-15T07:58:42;10.40;99.90
34837;DHT22;21053;50.848;4.652;2022-11-15T08:01:09;10.50;99.90
34837;DHT22;21053;50.848;4.652;2022-11-15T08:03:38;10.60;99.90
34837;DHT22;21053;50.848;4.652;2022-11-15T08:06:04;10.70;99.90
34837;DHT22;21053;50.848;4.652;2022-11-15T08:08:30;10.80;99.90
34837;DHT22;21053;50.848;4.652;2022-11-15T08:10:59;10.90;99.90
34837;DHT22;21053;50.848;4.652;2022-11-15T08:13:25;10.90;99.90
34837;DHT22;21053;50.848;4.652;2022-11-15T08:16:00;10.90;99.90
34837;DHT22;21053;50.848;4.652;2022-11-15T08:18:29;10.90;99.90
34837;DHT22;21053;50.848;4.652;2022-11-15T08:20:59;11.00;99.90
34837;DHT22;21053;50.848;4.652;2022-11-15T08:23:27;11.10;99.90
34837;DHT22;21053;50.848;4.652;2022-11-15T08:26:02;11.20;99.90
34837;DHT22;21053;50.848;4.652;2022-11-15T08:28:30;11.20;99.90
34837;DHT22;21053;50.848;4.652;2022-11-15T08:30:56;11.20;99.90
34837;DHT22;21053;50.848;4.652;2022-11-15T08:33:22;11.30;99.90
34837;DHT22;21053;50.848;4.652;2022-11-15T08:35:48;11.50;99.90
34837;DHT22;21053;50.848;4.652;2022-11-15T08:38:15;11.50;99.90
34837;DHT22;21053;50.848;4.652;2022-11-15T08:40:46;11.60;99.90
34837;DHT22;21053;50.848;4.652;2022-11-15T08:43:15;11.60;99.90
34837;DHT22;21053;50.848;4.652;2022-11-15T08:45:44;11.60;99.90
34837;DHT22;21053;50.848;4.652;2022-11-15T08:48:11;11.70;99.90
34837;DHT22;21053;50.848;4.652;2022-11-15T08:50:36;11.70;99.90
34837;DHT22;21053;50.848;4.652;2022-11-15T08:53:10;11.80;99.90
34837;DHT22;21053;50.848;4.652;2022-11-15T08:55:37;11.80;99.90
34837;DHT22;21053;50.848;4.652;2022-11-15T08:58:04;11.80;99.90
34837;DHT22;21053;50.848;4.652;2022-11-15T09:00:33;11.70;99.90
34837;DHT22;21053;50.848;4.652;2022-11-15T09:02:59;11.80;99.90
34837;DHT22;21053;50.848;4.652;2022-11-15T09:05:26;11.90;99.90
34837;DHT22;21053;50.848;4.652;2022-11-15T09:07:55;12.00;99.90
34837;DHT22;21053;50.848;4.652;2022-11-15T09:10:22;12.00;99.90
34837;DHT22;21053;50.848;4.652;2022-11-15T09:12:56;12.00;99.90
34837;DHT22;21053;50.848;4.652;2022-11-15T09:17:53;12.00;99.90
34837;DHT22;21053;50.848;4.652;2022-11-15T09:20:18;12.00;99.90
34837;DHT22;21053;50.848;4.652;2022-11-15T09:22:45;12.10;99.90
34837;DHT22;21053;50.848;4.652;2022-11-15T09:25:12;12.20;99.90
34837;DHT22;21053;50.848;4.652;2022-11-15T09:27:39;12.30;99.90
34837;DHT22;21053;50.848;4.652;2022-11-15T09:30:11;12.40;99.90
34837;DHT22;21053;50.848;4.652;2022-11-15T09:32:38;12.40;99.90
34837;DHT22;21053;50.848;4.652;2022-11-15T09:35:04;12.40;99.90
34837;DHT22;21053;50.848;4.652;2022-11-15T09:37:31;12.40;99.90
34837;DHT22;21053;50.848;4.652;2022-11-15T09:39:58;12.40;99.90
34837;DHT22;21053;50.848;4.652;2022-11-15T09:50:50;12.60;99.90
34837;DHT22;21053;50.848;4.652;2022-11-15T09:56:17;12.50;99.90
34837;DHT22;21053;50.848;4.652;2022-11-15T09:59:03;12.70;99.90
34837;DHT22;21053;50.848;4.652;2022-11-15T10:04:13;12.70;99.90
34837;DHT22;21053;50.848;4.652;2022-11-15T10:06:58;12.90;99.90
34837;DHT22;21053;50.848;4.652;2022-11-15T10:09:36;13.00;99.90
34837;DHT22;21053;50.848;4.652;2022-11-15T10:12:06;13.00;99.90
34837;DHT22;21053;50.848;4.652;2022-11-15T10:14:32;13.00;99.90
34837;DHT22;21053;50.848;4.652;2022-11-15T10:17:28;12.90;99.90
34837;DHT22;21053;50.848;4.652;2022-11-15T10:20:10;13.00;99.90
34837;DHT22;21053;50.848;4.652;2022-11-15T10:22:52;13.20;99.90
34837;DHT22;21053;50.848;4.652;2022-11-15T10:25:27;13.40;99.90
34837;DHT22;21053;50.848;4.652;2022-11-15T10:28:09;13.50;99.90
34837;DHT22;21053;50.848;4.652;2022-11-15T10:30:40;13.60;99.90
34837;DHT22;21053;50.848;4.652;2022-11-15T10:33:23;13.70;99.90
34837;DHT22;21053;50.848;4.652;2022-11-15T10:46:35;14.10;99.90
34837;DHT22;21053;50.848;4.652;2022-11-15T10:51:58;14.80;99.50
34837;DHT22;21053;50.848;4.652;2022-11-15T10:54:35;15.10;99.10
34837;DHT22;21053;50.848;4.652;2022-11-15T10:57:07;15.10;98.90
34837;DHT22;21053;50.848;4.652;2022-11-15T10:59:38;15.20;99.10
34837;DHT22;21053;50.848;4.652;2022-11-15T11:05:00;15.00;98.90
34837;DHT22;21053;50.848;4.652;2022-11-15T11:07:30;14.70;99.00
34837;DHT22;21053;50.848;4.652;2022-11-15T11:10:16;14.60;99.90
34837;DHT22;21053;50.848;4.652;2022-11-15T11:12:42;14.50;99.90
34837;DHT22;21053;50.848;4.652;2022-11-15T11:15:14;14.50;99.90
34837;DHT22;21053;50.848;4.652;2022-11-15T11:18:04;14.30;99.80
34837;DHT22;21053;50.848;4.652;2022-11-15T11:20:41;14.20;99.90
34837;DHT22;21053;50.848;4.652;2022-11-15T11:28:42;14.30;99.90
34837;DHT22;21053;50.848;4.652;2022-11-15T11:34:02;14.50;99.60
34837;DHT22;21053;50.848;4.652;2022-11-15T11:36:45;14.40;99.60
34837;DHT22;21053;50.848;4.652;2022-11-15T11:42:30;14.70;99.90
34837;DHT22;21053;50.848;4.652;2022-11-15T11:48:21;14.70;99.10
34837;DHT22;21053;50.848;4.652;2022-11-15T11:50:45;14.70;98.70
34837;DHT22;21053;50.848;4.652;2022-11-15T11:53:13;14.70;99.60
34837;DHT22;21053;50.848;4.652;2022-11-15T11:56:03;14.70;98.60
34837;DHT22;21053;50.848;4.652;2022-11-15T11:58:41;14.70;98.90
34837;DHT22;21053;50.848;4.652;2022-11-15T12:04:08;14.80;98.60
34837;DHT22;21053;50.848;4.652;2022-11-15T12:12:38;14.80;99.50
34837;DHT22;21053;50.848;4.652;2022-11-15T12:15:11;14.70;99.40
34837;DHT22;21053;50.848;4.652;2022-11-15T12:17:40;14.60;99.50
34837;DHT22;21053;50.848;4.652;2022-11-15T12:20:38;14.60;99.80
34837;DHT22;21053;50.848;4.652;2022-11-15T12:23:14;14.70;99.90
34837;DHT22;21053;50.848;4.652;2022-11-15T12:25:54;14.60;99.90
34837;DHT22;21053;50.848;4.652;2022-11-15T12:28:51;14.60;99.90
34837;DHT22;21053;50.848;4.652;2022-11-15T12:31:49;14.50;99.90
34837;DHT22;21053;50.848;4.652;2022-11-15T12:36:53;14.60;99.90
34837;DHT22;21053;50.848;4.652;2022-11-15T12:39:20;14.60;99.90
34837;DHT22;21053;50.848;4.652;2022-11-15T12:59:57;14.60;99.90
34837;DHT22;21053;50.848;4.652;2022-11-15T13:05:26;14.60;99.90
34837;DHT22;21053;50.848;4.652;2022-11-15T13:10:31;14.80;99.90
34837;DHT22;21053;50.848;4.652;2022-11-15T13:13:03;14.80;99.90
34837;DHT22;21053;50.848;4.652;2022-11-15T13:18:40;14.90;99.90
34837;DHT22;21053;50.848;4.652;2022-11-15T13:21:21;15.00;99.90
34837;DHT22;21053;50.848;4.652;2022-11-15T13:24:15;15.00;99.90
34837;DHT22;21053;50.848;4.652;2022-11-15T13:26:44;15.10;99.90
34837;DHT22;21053;50.848;4.652;2022-11-15T13:29:16;15.10;99.90
34837;DHT22;21053;50.848;4.652;2022-11-15T13:31:43;15.00;99.90
34837;DHT22;21053;50.848;4.652;2022-11-15T13:34:16;15.00;99.90
34837;DHT22;21053;50.848;4.652;2022-11-15T13:36:46;14.90;99.90
34837;DHT22;21053;50.848;4.652;2022-11-15T13:39:33;14.80;99.90
34837;DHT22;21053;50.848;4.652;2022-11-15T13:42:00;14.80;99.90
34837;DHT22;21053;50.848;4.652;2022-11-15T13:44:31;14.80;99.90
34837;DHT22;21053;50.848;4.652;2022-11-15T13:47:19;14.70;99.90
34837;DHT22;21053;50.848;4.652;2022-11-15T13:49:45;14.60;99.90
34837;DHT22;21053;50.848;4.652;2022-11-15T13:52:14;14.70;99.90
34837;DHT22;21053;50.848;4.652;2022-11-15T13:55:02;14.80;99.90
34837;DHT22;21053;50.848;4.652;2022-11-15T14:00:22;14.70;99.90
34837;DHT22;21053;50.848;4.652;2022-11-15T14:02:49;14.70;99.90
34837;DHT22;21053;50.848;4.652;2022-11-15T14:05:18;14.70;99.90
34837;DHT22;21053;50.848;4.652;2022-11-15T14:08:12;14.60;99.90
34837;DHT22;21053;50.848;4.652;2022-11-15T14:10:48;14.70;99.90
34837;DHT22;21053;50.848;4.652;2022-11-15T14:13:31;14.80;99.90
34837;DHT22;21053;50.848;4.652;2022-11-15T14:16:20;14.80;99.90
34837;DHT22;21053;50.848;4.652;2022-11-15T14:18:48;14.70;99.90
34837;DHT22;21053;50.848;4.652;2022-11-15T14:21:16;14.80;99.90
34837;DHT22;21053;50.848;4.652;2022-11-15T14:23:44;14.80;99.90
34837;DHT22;21053;50.848;4.652;2022-11-15T14:26:48;14.80;99.90
34837;DHT22;21053;50.848;4.652;2022-11-15T14:29:28;14.80;99.90
34837;DHT22;21053;50.848;4.652;2022-11-15T14:32:12;14.80;99.90
34837;DHT22;21053;50.848;4.652;2022-11-15T14:34:39;14.60;99.90
34837;DHT22;21053;50.848;4.652;2022-11-15T14:37:21;14.40;99.90
34837;DHT22;21053;50.848;4.652;2022-11-15T14:39:49;14.40;99.90
34837;DHT22;21053;50.848;4.652;2022-11-15T14:42:15;14.40;99.90
34837;DHT22;21053;50.848;4.652;2022-11-15T14:44:41;14.40;99.90
34837;DHT22;21053;50.848;4.652;2022-11-15T14:48:39;14.40;99.90
34837;DHT22;21053;50.848;4.652;2022-11-15T14:51:13;14.40;99.90
34837;DHT22;21053;50.848;4.652;2022-11-15T14:53:40;14.40;99.90
34837;DHT22;21053;50.848;4.652;2022-11-15T14:56:06;14.40;99.90
34837;DHT22;21053;50.848;4.652;2022-11-15T14:58:33;14.40;99.90
34837;DHT22;21053;50.848;4.652;2022-11-15T15:01:05;14.20;99.90
34837;DHT22;21053;50.848;4.652;2022-11-15T15:03:37;14.30;99.90
34837;DHT22;21053;50.848;4.652;2022-11-15T15:06:03;14.30;99.90
34837;DHT22;21053;50.848;4.652;2022-11-15T15:08:28;14.40;99.90
34837;DHT22;21053;50.848;4.652;2022-11-15T15:10:56;14.30;99.90
34837;DHT22;21053;50.848;4.652;2022-11-15T15:13:23;14.20;99.90
34837;DHT22;21053;50.848;4.652;2022-11-15T15:15:51;14.30;99.90
34837;DHT22;21053;50.848;4.652;2022-11-15T15:18:19;14.30;99.90
34837;DHT22;21053;50.848;4.652;2022-11-15T15:20:49;14.30;99.90
34837;DHT22;21053;50.848;4.652;2022-11-15T15:23:21;14.30;99.90
34837;DHT22;21053;50.848;4.652;2022-11-15T15:25:50;14.10;99.90
34837;DHT22;21053;50.848;4.652;2022-11-15T15:28:17;14.10;99.90
34837;DHT22;21053;50.848;4.652;2022-11-15T15:30:42;14.10;99.90
34837;DHT22;21053;50.848;4.652;2022-11-15T15:33:12;14.20;99.90
34837;DHT22;21053;50.848;4.652;2022-11-15T15:35:37;14.10;99.90
34837;DHT22;21053;50.848;4.652;2022-11-15T15:38:08;14.00;99.90
34837;DHT22;21053;50.848;4.652;2022-11-15T15:40:34;14.00;99.90
34837;DHT22;21053;50.848;4.652;2022-11-15T15:43:03;14.10;99.90
34837;DHT22;21053;50.848;4.652;2022-11-15T15:45:38;14.00;99.90
34837;DHT22;21053;50.848;4.652;2022-11-15T15:48:04;14.00;99.90
34837;DHT22;21053;50.848;4.652;2022-11-15T15:50:34;13.90;99.90
34837;DHT22;21053;50.848;4.652;2022-11-15T15:53:02;13.90;99.90
34837;DHT22;21053;50.848;4.652;2022-11-15T15:55:29;13.90;99.90
34837;DHT22;21053;50.848;4.652;2022-11-15T15:57:55;13.80;99.90
34837;DHT22;21053;50.848;4.652;2022-11-15T16:00:24;13.80;99.90
34837;DHT22;21053;50.848;4.652;2022-11-15T16:02:50;13.80;99.90
34837;DHT22;21053;50.848;4.652;2022-11-15T16:05:17;13.80;99.90
34837;DHT22;21053;50.848;4.652;2022-11-15T16:07:44;13.70;99.90
34837;DHT22;21053;50.848;4.652;2022-11-15T16:10:27;13.60;99.90
34837;DHT22;21053;50.848;4.652;2022-11-15T16:12:54;13.60;99.90
34837;DHT22;21053;50.848;4.652;2022-11-15T16:15:21;13.70;99.90
34837;DHT22;21053;50.848;4.652;2022-11-15T16:17:53;13.60;99.90
34837;DHT22;21053;50.848;4.652;2022-11-15T16:23:00;13.60;99.90
34837;DHT22;21053;50.848;4.652;2022-11-15T16:25:26;13.70;99.90
34837;DHT22;21053;50.848;4.652;2022-11-15T16:27:52;13.70;99.90
34837;DHT22;21053;50.848;4.652;2022-11-15T16:30:21;13.70;99.90
34837;DHT22;21053;50.848;4.652;2022-11-15T16:32:47;13.80;99.90
34837;DHT22;21053;50.848;4.652;2022-11-15T16:35:15;13.80;99.90
34837;DHT22;21053;50.848;4.652;2022-11-15T16:37:43;13.80;99.90
34837;DHT22;21053;50.848;4.652;2022-11-15T16:42:43;13.80;99.90
34837;DHT22;21053;50.848;4.652;2022-11-15T16:45:11;13.80;99.90
34837;DHT22;21053;50.848;4.652;2022-11-15T16:47:40;13.80;99.90
34837;DHT22;21053;50.848;4.652;2022-11-15T16:50:06;13.70;99.90
34837;DHT22;21053;50.848;4.652;2022-11-15T16:52:31;13.70;99.90
34837;DHT22;21053;50.848;4.652;2022-11-15T16:54:58;13.70;99.90
34837;DHT22;21053;50.848;4.652;2022-11-15T16:57:25;13.80;99.90
34837;DHT22;21053;50.848;4.652;2022-11-15T16:59:52;13.80;99.90
34837;DHT22;21053;50.848;4.652;2022-11-15T17:02:18;13.80;99.90
34837;DHT22;21053;50.848;4.652;2022-11-15T17:04:45;13.70;99.90
34837;DHT22;21053;50.848;4.652;2022-11-15T17:07:12;13.70;99.90
34837;DHT22;21053;50.848;4.652;2022-11-15T17:09:39;13.70;99.90
34837;DHT22;21053;50.848;4.652;2022-11-15T17:12:05;13.80;99.90
34837;DHT22;21053;50.848;4.652;2022-11-15T17:14:30;13.80;99.90
34837;DHT22;21053;50.848;4.652;2022-11-15T17:16:59;13.80;99.90
34837;DHT22;21053;50.848;4.652;2022-11-15T17:19:25;13.80;99.90
34837;DHT22;21053;50.848;4.652;2022-11-15T17:21:50;13.80;99.90
34837;DHT22;21053;50.848;4.652;2022-11-15T17:24:16;13.90;99.90
34837;DHT22;21053;50.848;4.652;2022-11-15T17:26:46;13.80;99.90
34837;DHT22;21053;50.848;4.652;2022-11-15T17:29:11;13.80;99.90
34837;DHT22;21053;50.848;4.652;2022-11-15T17:31:38;13.80;99.90
34837;DHT22;21053;50.848;4.652;2022-11-15T17:34:05;13.80;99.90
34837;DHT22;21053;50.848;4.652;2022-11-15T17:36:33;13.70;99.90
34837;DHT22;21053;50.848;4.652;2022-11-15T17:38:59;13.70;99.90
34837;DHT22;21053;50.848;4.652;2022-11-15T17:41:27;13.80;99.90
34837;DHT22;21053;50.848;4.652;2022-11-15T17:43:57;13.70;99.90
34837;DHT22;21053;50.848;4.652;2022-11-15T17:46:24;13.80;99.90
34837;DHT22;21053;50.848;4.652;2022-11-15T17:48:50;13.70;99.90
34837;DHT22;21053;50.848;4.652;2022-11-15T17:51:17;13.80;99.90
34837;DHT22;21053;50.848;4.652;2022-11-15T17:53:45;13.80;99.90